Disclaimer

Please do not use the information listed here in-flight or in-navigation, as they are not provided to us by the airports but are provided by volunteers, so they might be outdated.

Search


Regions


Airport information page

Radio informations:
Ground (GND) - 236.8 MHz

Airport informations:
Latitude: 24° 47' 02.40" N
Longitude: 141° 19' 21.80" E
Elevation: 384 feet - 117 meters
Operating hours: N/A
Operating agency: Military
Timezone: UTC+9
Fuel: JP-4, Wide cut turbine fuel MIL Spec T-5624

Runway information:
07/25 - 8700 x 200 feet< - >2652 x 61 meters

Recent METARs:
RJAW 190300Z 09005KT 010V170 9999 FEW020 27/21 Q1014 RMK 2CU020 A2996
RJAW 190300Z 09005KT 010V170 9999 FEW020 27/21 Q1014 RMK 2CU020 A2996
RJAW 190400Z 06005KT 010V120 9999 SCT020 26/21 Q1014 RMK 3CU020 A2995

Airport on the map: